createdAt,value
2019-06-27T00:00:10.362Z,0.00
2019-06-27T00:01:10.366Z,0.00
2019-06-27T00:02:10.370Z,0.00
2019-06-27T00:03:10.367Z,0.00
2019-06-27T00:04:10.385Z,0.00
2019-06-27T00:05:10.376Z,0.00
2019-06-27T00:06:10.372Z,0.00
2019-06-27T00:07:10.373Z,0.00
2019-06-27T00:08:10.376Z,0.00
2019-06-27T00:09:10.378Z,0.00
2019-06-27T00:10:10.377Z,0.00
2019-06-27T00:11:10.426Z,0.00
2019-06-27T00:12:10.385Z,0.00
2019-06-27T00:13:10.384Z,0.00
2019-06-27T00:14:10.382Z,0.00
2019-06-27T00:15:10.386Z,0.00
2019-06-27T00:16:10.387Z,0.00
2019-06-27T00:17:10.390Z,0.00
2019-06-27T00:18:10.386Z,0.00
2019-06-27T00:19:10.391Z,0.00
2019-06-27T00:20:10.388Z,0.00
2019-06-27T00:21:10.389Z,0.00
2019-06-27T00:22:10.396Z,0.00
2019-06-27T00:23:10.387Z,0.00
2019-06-27T00:24:10.390Z,0.00
2019-06-27T00:25:10.395Z,0.00
2019-06-27T00:26:10.391Z,0.00
2019-06-27T00:27:10.402Z,0.00
2019-06-27T00:28:10.404Z,0.00
2019-06-27T00:29:10.396Z,0.00
2019-06-27T00:30:10.393Z,0.00
2019-06-27T00:31:10.396Z,0.00
2019-06-27T00:32:10.397Z,0.00
2019-06-27T00:33:10.402Z,0.00
2019-06-27T00:34:10.399Z,0.00
2019-06-27T00:35:10.398Z,0.00
2019-06-27T00:36:10.400Z,0.00
2019-06-27T00:37:10.406Z,0.00
2019-06-27T00:38:10.401Z,0.00
2019-06-27T00:39:10.399Z,0.00
2019-06-27T00:40:10.400Z,0.00
2019-06-27T00:41:10.403Z,0.00
2019-06-27T00:42:10.399Z,0.00
2019-06-27T00:43:10.403Z,0.00
2019-06-27T00:44:10.401Z,0.00
2019-06-27T00:45:10.581Z,0.00
2019-06-27T00:46:10.405Z,0.00
2019-06-27T00:47:10.402Z,0.00
2019-06-27T00:48:10.405Z,0.00
2019-06-27T00:49:10.399Z,0.00
2019-06-27T00:50:10.406Z,0.00
2019-06-27T00:51:10.405Z,0.00
2019-06-27T00:52:10.407Z,0.00
2019-06-27T00:53:10.407Z,0.00
2019-06-27T00:54:10.402Z,0.00
2019-06-27T00:55:10.404Z,0.00
2019-06-27T00:56:10.406Z,0.00
2019-06-27T00:57:14.552Z,0.00
2019-06-27T00:58:10.409Z,0.00
2019-06-27T00:59:10.403Z,0.00
2019-06-27T01:00:10.430Z,0.00
2019-06-27T01:01:10.420Z,0.00
2019-06-27T01:02:10.421Z,0.00
2019-06-27T01:03:10.408Z,0.00
2019-06-27T01:04:10.410Z,0.00
2019-06-27T01:05:10.408Z,0.00
2019-06-27T01:06:10.406Z,0.00
2019-06-27T01:07:10.404Z,0.00
2019-06-27T01:08:10.413Z,0.00
2019-06-27T01:09:10.404Z,0.00
2019-06-27T01:10:10.411Z,0.00
2019-06-27T01:11:10.406Z,0.00
2019-06-27T01:12:10.403Z,0.00
2019-06-27T01:13:10.406Z,0.00
2019-06-27T01:14:10.404Z,0.00
2019-06-27T01:15:10.401Z,0.00
2019-06-27T01:16:10.406Z,0.00
2019-06-27T01:17:10.413Z,0.00
2019-06-27T01:18:10.404Z,0.00
2019-06-27T01:19:10.408Z,0.00
2019-06-27T01:20:10.409Z,0.00
2019-06-27T01:21:10.409Z,0.00
2019-06-27T01:22:10.403Z,0.00
2019-06-27T01:23:10.409Z,0.00
2019-06-27T01:24:10.419Z,0.00
2019-06-27T01:25:10.405Z,0.00
2019-06-27T01:26:10.403Z,0.00
2019-06-27T01:27:10.405Z,0.00
2019-06-27T01:28:10.403Z,0.00
2019-06-27T01:29:10.406Z,0.00
2019-06-27T01:30:10.399Z,0.00
2019-06-27T01:31:10.422Z,0.00
2019-06-27T01:32:10.403Z,0.00
2019-06-27T01:33:10.400Z,0.00
2019-06-27T01:34:10.399Z,0.00
2019-06-27T01:35:10.404Z,0.00
2019-06-27T01:36:10.413Z,0.00
2019-06-27T01:37:10.402Z,0.00
2019-06-27T01:38:10.400Z,0.00
2019-06-27T01:39:10.401Z,0.00
2019-06-27T01:40:10.403Z,0.00
2019-06-27T01:41:10.405Z,0.00
2019-06-27T01:42:10.399Z,0.00
2019-06-27T01:43:10.398Z,0.00
2019-06-27T01:44:10.399Z,0.00
2019-06-27T01:45:10.400Z,0.00
2019-06-27T01:46:10.397Z,0.00
2019-06-27T01:47:10.397Z,0.00
2019-06-27T01:48:10.399Z,0.00
2019-06-27T01:49:10.395Z,0.00
2019-06-27T01:50:10.400Z,0.00
2019-06-27T01:51:10.399Z,0.00
2019-06-27T01:52:10.396Z,0.00
2019-06-27T01:53:10.393Z,0.00
2019-06-27T01:54:10.390Z,0.00
2019-06-27T01:55:10.391Z,0.00
2019-06-27T01:56:10.399Z,0.00
2019-06-27T01:57:10.390Z,0.00
2019-06-27T01:58:10.388Z,0.00
2019-06-27T01:59:10.390Z,0.00
2019-06-27T02:00:10.394Z,0.00
2019-06-27T02:01:10.396Z,0.00
2019-06-27T02:02:10.387Z,0.00
2019-06-27T02:03:10.391Z,0.00
2019-06-27T02:04:10.400Z,0.00
2019-06-27T02:05:10.387Z,0.00
2019-06-27T02:06:10.386Z,0.00
2019-06-27T02:07:10.384Z,0.00
2019-06-27T02:08:10.393Z,0.00
2019-06-27T02:09:10.387Z,0.00
2019-06-27T02:10:10.385Z,0.00
2019-06-27T02:11:10.391Z,0.00
2019-06-27T02:12:10.384Z,0.00
2019-06-27T02:13:10.382Z,0.00
2019-06-27T02:14:10.380Z,0.00
2019-06-27T02:15:10.385Z,0.00
2019-06-27T02:16:10.382Z,0.00
2019-06-27T02:17:10.386Z,0.00
2019-06-27T02:18:10.372Z,0.00
2019-06-27T02:19:10.404Z,0.00
2019-06-27T02:20:10.378Z,0.00
2019-06-27T02:21:10.378Z,0.00
2019-06-27T02:22:10.374Z,0.00
2019-06-27T02:23:10.376Z,0.00
2019-06-27T02:24:10.376Z,0.00
2019-06-27T02:25:10.375Z,0.00
2019-06-27T02:26:10.385Z,0.00
2019-06-27T02:27:10.370Z,0.00
2019-06-27T02:28:10.374Z,0.00
2019-06-27T02:29:10.369Z,0.00
2019-06-27T02:30:10.374Z,0.00
2019-06-27T02:31:10.373Z,0.00
2019-06-27T02:32:10.374Z,0.00
2019-06-27T02:33:10.373Z,0.00
2019-06-27T02:34:10.368Z,0.00
2019-06-27T02:35:10.395Z,0.00
2019-06-27T02:36:10.367Z,0.00
2019-06-27T02:37:10.411Z,0.00
2019-06-27T02:38:10.366Z,5.63
2019-06-27T02:39:10.365Z,5.63
2019-06-27T02:40:10.367Z,5.63
2019-06-27T02:41:10.362Z,5.63
2019-06-27T02:42:10.365Z,5.63
2019-06-27T02:43:10.382Z,5.63
2019-06-27T02:44:10.362Z,5.63
2019-06-27T02:45:10.363Z,5.63
2019-06-27T02:46:10.359Z,5.63
2019-06-27T02:47:10.364Z,5.63
2019-06-27T02:48:10.362Z,5.63
2019-06-27T02:49:10.356Z,5.63
2019-06-27T02:50:10.470Z,5.63
2019-06-27T02:51:10.351Z,5.63
2019-06-27T02:52:10.347Z,5.63
2019-06-27T02:53:10.360Z,11.25
2019-06-27T02:54:10.347Z,11.25
2019-06-27T02:55:10.353Z,11.25
2019-06-27T02:56:10.350Z,11.25
2019-06-27T02:57:10.348Z,11.25
2019-06-27T02:58:28.837Z,11.25
2019-06-27T02:59:10.348Z,11.25
2019-06-27T03:00:10.349Z,16.88
2019-06-27T03:01:10.343Z,16.88
2019-06-27T03:02:10.340Z,16.88
2019-06-27T03:03:10.340Z,22.50
2019-06-27T03:04:10.337Z,22.50
2019-06-27T03:05:10.349Z,28.13
2019-06-27T03:06:10.342Z,28.13
2019-06-27T03:07:10.337Z,33.75
2019-06-27T03:08:10.335Z,28.13
2019-06-27T03:09:10.345Z,28.13
2019-06-27T03:10:10.333Z,28.13
2019-06-27T03:11:10.332Z,28.13
2019-06-27T03:12:10.337Z,22.50
2019-06-27T03:13:10.331Z,28.13
2019-06-27T03:14:10.335Z,28.13
2019-06-27T03:15:10.353Z,28.13
2019-06-27T03:16:10.325Z,28.13
2019-06-27T03:17:10.340Z,28.13
2019-06-27T03:18:10.321Z,33.75
2019-06-27T03:19:10.322Z,33.75
2019-06-27T03:20:10.343Z,39.38
2019-06-27T03:21:10.324Z,45.00
2019-06-27T03:22:10.319Z,45.00
2019-06-27T03:23:10.323Z,45.00
2019-06-27T03:24:10.323Z,50.63
2019-06-27T03:25:10.319Z,50.63
2019-06-27T03:26:10.318Z,56.25
2019-06-27T03:27:10.315Z,61.88
2019-06-27T03:28:10.314Z,61.88
2019-06-27T03:29:10.323Z,56.25
2019-06-27T03:30:10.315Z,84.38
2019-06-27T03:31:10.349Z,106.88
2019-06-27T03:32:10.340Z,163.13
2019-06-27T03:33:10.312Z,168.75
2019-06-27T03:34:10.309Z,174.38
2019-06-27T03:35:10.319Z,174.38
2019-06-27T03:36:10.310Z,90.00
2019-06-27T03:37:10.310Z,191.25
2019-06-27T03:38:10.313Z,101.25
2019-06-27T03:39:10.306Z,168.75
2019-06-27T03:40:10.300Z,213.75
2019-06-27T03:41:10.327Z,230.63
2019-06-27T03:42:10.296Z,202.50
2019-06-27T03:43:10.297Z,106.88
2019-06-27T03:44:10.295Z,230.63
2019-06-27T03:45:15.037Z,106.88
2019-06-27T03:46:10.296Z,106.88
2019-06-27T03:47:10.293Z,230.63
2019-06-27T03:48:10.295Z,264.38
2019-06-27T03:49:10.307Z,168.75
2019-06-27T03:50:10.296Z,95.63
2019-06-27T03:51:10.291Z,95.63
2019-06-27T03:52:10.292Z,90.00
2019-06-27T03:53:10.293Z,90.00
2019-06-27T03:54:10.287Z,90.00
2019-06-27T03:55:10.291Z,90.00
2019-06-27T03:56:10.289Z,90.00
2019-06-27T03:57:10.285Z,90.00
2019-06-27T03:58:10.285Z,90.00
2019-06-27T03:59:12.817Z,95.63
2019-06-27T04:00:10.432Z,78.75
2019-06-27T04:01:10.283Z,78.75
2019-06-27T04:02:10.282Z,106.88
2019-06-27T04:03:10.305Z,90.00
2019-06-27T04:04:10.301Z,78.75
2019-06-27T04:05:10.282Z,78.75
2019-06-27T04:06:10.284Z,84.38
2019-06-27T04:07:10.280Z,213.75
2019-06-27T04:08:10.278Z,309.38
2019-06-27T04:09:10.275Z,315.00
2019-06-27T04:10:10.276Z,315.00
2019-06-27T04:11:10.286Z,320.63
2019-06-27T04:12:10.270Z,326.25
2019-06-27T04:13:10.274Z,326.25
2019-06-27T04:14:10.280Z,326.25
2019-06-27T04:15:10.298Z,331.88
2019-06-27T04:16:10.269Z,331.88
2019-06-27T04:17:10.286Z,331.88
2019-06-27T04:18:10.266Z,337.50
2019-06-27T04:19:10.267Z,343.13
2019-06-27T04:20:10.273Z,343.13
2019-06-27T04:21:10.265Z,354.38
2019-06-27T04:22:10.267Z,360.00
2019-06-27T04:23:10.260Z,371.25
2019-06-27T04:24:10.265Z,393.75
2019-06-27T04:25:10.263Z,399.38
2019-06-27T04:26:10.260Z,185.63
2019-06-27T04:27:10.266Z,270.00
2019-06-27T04:28:10.294Z,376.88
2019-06-27T04:29:10.265Z,146.25
2019-06-27T04:30:10.270Z,129.38
2019-06-27T04:31:10.259Z,140.63
2019-06-27T04:32:10.269Z,129.38
2019-06-27T04:33:10.259Z,376.88
2019-06-27T04:34:10.255Z,376.88
2019-06-27T04:35:10.269Z,405.00
2019-06-27T04:36:10.274Z,410.63
2019-06-27T04:37:10.261Z,196.88
2019-06-27T04:38:10.263Z,399.38
2019-06-27T04:39:10.252Z,196.88
2019-06-27T04:40:10.259Z,208.13
2019-06-27T04:41:10.263Z,202.50
2019-06-27T04:42:10.253Z,163.13
2019-06-27T04:43:10.257Z,196.88
2019-06-27T04:44:10.253Z,213.75
2019-06-27T04:45:10.266Z,421.88
2019-06-27T04:46:10.252Z,337.50
2019-06-27T04:47:10.258Z,433.13
2019-06-27T04:48:10.254Z,292.50
2019-06-27T04:49:13.393Z,433.13
2019-06-27T04:50:10.253Z,225.00
2019-06-27T04:51:10.250Z,483.75
2019-06-27T04:52:10.253Z,371.25
2019-06-27T04:53:10.247Z,421.88
2019-06-27T04:54:10.250Z,556.88
2019-06-27T04:55:10.254Z,545.63
2019-06-27T04:56:10.248Z,523.13
2019-06-27T04:57:10.250Z,337.50
2019-06-27T04:58:10.251Z,309.38
2019-06-27T04:59:10.249Z,517.50
2019-06-27T05:00:10.247Z,270.00
2019-06-27T05:01:10.251Z,523.13
2019-06-27T05:02:10.248Z,511.88
2019-06-27T05:03:10.249Z,461.25
2019-06-27T05:04:10.251Z,393.75
2019-06-27T05:05:10.249Z,275.63
2019-06-27T05:06:10.325Z,427.50
2019-06-27T05:07:10.252Z,433.13
2019-06-27T05:08:14.380Z,416.25
2019-06-27T05:09:10.250Z,208.13
2019-06-27T05:10:10.251Z,393.75
2019-06-27T05:11:10.250Z,180.00
2019-06-27T05:12:10.249Z,326.25
2019-06-27T05:13:10.249Z,421.88
2019-06-27T05:14:10.247Z,421.88
2019-06-27T05:15:10.253Z,416.25
2019-06-27T05:16:10.258Z,421.88
2019-06-27T05:17:10.251Z,421.88
2019-06-27T05:18:10.254Z,416.25
2019-06-27T05:19:10.252Z,416.25
2019-06-27T05:20:10.257Z,410.63
2019-06-27T05:21:10.252Z,416.25
2019-06-27T05:22:10.255Z,416.25
2019-06-27T05:23:10.308Z,416.25
2019-06-27T05:24:10.254Z,416.25
2019-06-27T05:25:10.254Z,416.25
2019-06-27T05:26:10.255Z,416.25
2019-06-27T05:27:10.254Z,416.25
2019-06-27T05:28:10.256Z,416.25
2019-06-27T05:29:10.259Z,416.25
2019-06-27T05:30:10.669Z,416.25
2019-06-27T05:31:10.262Z,416.25
2019-06-27T05:32:10.288Z,421.88
2019-06-27T05:33:10.261Z,421.88
2019-06-27T05:34:10.266Z,427.50
2019-06-27T05:35:10.338Z,455.63
2019-06-27T05:36:10.579Z,466.88
2019-06-27T05:37:10.264Z,517.50
2019-06-27T05:38:10.267Z,517.50
2019-06-27T05:39:10.263Z,573.75
2019-06-27T05:40:10.261Z,613.13
2019-06-27T05:41:10.282Z,675.00
2019-06-27T05:42:10.270Z,663.75
2019-06-27T05:43:10.272Z,641.25
2019-06-27T05:44:10.285Z,337.50
2019-06-27T05:45:10.270Z,461.25
2019-06-27T05:46:10.273Z,427.50
2019-06-27T05:47:10.274Z,500.63
2019-06-27T05:48:10.279Z,360.00
2019-06-27T05:49:10.287Z,579.38
2019-06-27T05:50:10.282Z,292.50
2019-06-27T05:51:10.283Z,264.38
2019-06-27T05:52:10.288Z,315.00
2019-06-27T05:53:10.301Z,405.00
2019-06-27T05:54:10.289Z,500.63
2019-06-27T05:55:10.291Z,478.13
2019-06-27T05:56:10.291Z,466.88
2019-06-27T05:57:10.299Z,466.88
2019-06-27T05:58:10.295Z,500.63
2019-06-27T05:59:10.300Z,455.63
2019-06-27T06:00:26.838Z,483.75
2019-06-27T06:01:10.344Z,534.38
2019-06-27T06:02:10.315Z,495.00
2019-06-27T06:03:10.303Z,478.13
2019-06-27T06:04:10.307Z,478.13
2019-06-27T06:05:10.324Z,253.13
2019-06-27T06:06:10.312Z,489.38
2019-06-27T06:07:10.313Z,534.38
2019-06-27T06:08:10.311Z,579.38
2019-06-27T06:09:10.314Z,607.50
2019-06-27T06:10:10.316Z,506.25
2019-06-27T06:11:10.320Z,714.38
2019-06-27T06:12:10.326Z,748.13
2019-06-27T06:13:10.325Z,720.00
2019-06-27T06:14:10.321Z,483.75
2019-06-27T06:15:10.326Z,720.00
2019-06-27T06:16:10.330Z,433.13
2019-06-27T06:17:10.330Z,708.75
2019-06-27T06:18:10.335Z,821.25
2019-06-27T06:19:10.333Z,748.13
2019-06-27T06:20:10.337Z,1074.38
2019-06-27T06:21:10.337Z,1856.25
2019-06-27T06:22:10.365Z,2199.38
2019-06-27T06:23:10.346Z,950.63
2019-06-27T06:24:10.347Z,843.75
2019-06-27T06:25:10.356Z,1991.25
2019-06-27T06:26:10.359Z,2047.50
2019-06-27T06:27:10.348Z,2176.88
2019-06-27T06:28:10.358Z,2340.00
2019-06-27T06:29:10.364Z,2430.00
2019-06-27T06:30:10.363Z,2261.25
2019-06-27T06:31:11.221Z,2469.38
2019-06-27T06:32:10.374Z,2458.13
2019-06-27T06:33:10.394Z,2542.50
2019-06-27T06:34:10.376Z,2491.88
2019-06-27T06:35:10.380Z,2508.75
2019-06-27T06:36:10.392Z,2581.88
2019-06-27T06:37:10.395Z,2581.88
2019-06-27T06:38:10.388Z,2548.13
2019-06-27T06:39:10.395Z,2323.13
2019-06-27T06:40:10.400Z,2255.63
2019-06-27T06:41:10.397Z,2154.38
2019-06-27T06:42:10.410Z,2041.88
2019-06-27T06:43:10.406Z,2019.38
2019-06-27T06:44:10.409Z,2216.25
2019-06-27T06:45:10.410Z,2486.25
2019-06-27T06:46:10.413Z,2655.00
2019-06-27T06:47:10.441Z,2722.50
2019-06-27T06:48:10.425Z,1867.50
2019-06-27T06:49:10.430Z,2626.88
2019-06-27T06:50:10.431Z,2587.50
2019-06-27T06:51:10.434Z,2581.88
2019-06-27T06:52:10.441Z,2520.00
2019-06-27T06:53:10.447Z,658.13
2019-06-27T06:54:10.449Z,2632.50
2019-06-27T06:55:10.448Z,2643.75
2019-06-27T06:56:10.451Z,2677.50
2019-06-27T06:57:10.462Z,2621.25
2019-06-27T06:58:10.461Z,2739.38
2019-06-27T06:59:10.463Z,2806.88
2019-06-27T07:00:10.487Z,2851.88
2019-06-27T07:01:10.477Z,2829.38
2019-06-27T07:02:10.474Z,2750.63
2019-06-27T07:03:10.480Z,2626.88
2019-06-27T07:04:10.526Z,2621.25
2019-06-27T07:05:10.489Z,2615.63
2019-06-27T07:06:10.485Z,2671.88
2019-06-27T07:07:13.163Z,2716.88
2019-06-27T07:08:10.500Z,2801.25
2019-06-27T07:09:10.520Z,2846.25
2019-06-27T07:10:10.499Z,2868.75
2019-06-27T07:11:10.510Z,2851.88
2019-06-27T07:12:10.517Z,2835.00
2019-06-27T07:13:10.512Z,2846.25
2019-06-27T07:14:10.518Z,2863.13
2019-06-27T07:15:10.521Z,2868.75
2019-06-27T07:16:10.523Z,2823.75
2019-06-27T07:17:10.529Z,2773.13
2019-06-27T07:18:10.531Z,2745.00
2019-06-27T07:19:10.532Z,2750.63
2019-06-27T07:20:10.547Z,2851.88
2019-06-27T07:21:10.543Z,2874.38
2019-06-27T07:22:10.568Z,2874.38
2019-06-27T07:23:10.577Z,2857.50
2019-06-27T07:24:10.557Z,2790.00
2019-06-27T07:25:10.556Z,2790.00
2019-06-27T07:26:10.560Z,2812.50
2019-06-27T07:27:10.569Z,2902.50
2019-06-27T07:28:10.570Z,2958.75
2019-06-27T07:29:10.596Z,2936.25
2019-06-27T07:30:10.583Z,2919.38
2019-06-27T07:31:17.765Z,2998.13
2019-06-27T07:32:10.585Z,2975.63
2019-06-27T07:33:10.595Z,2970.00
2019-06-27T07:34:10.593Z,2970.00
2019-06-27T07:35:10.605Z,3003.75
2019-06-27T07:36:10.599Z,3003.75
2019-06-27T07:37:10.609Z,3043.13
2019-06-27T07:38:10.614Z,3054.38
2019-06-27T07:39:10.624Z,3138.75
2019-06-27T07:40:10.621Z,3195.00
2019-06-27T07:41:10.627Z,3262.50
2019-06-27T07:42:10.641Z,3318.75
2019-06-27T07:43:10.638Z,3358.13
2019-06-27T07:44:10.637Z,3234.38
2019-06-27T07:45:10.642Z,3127.50
2019-06-27T07:46:24.022Z,3093.75
2019-06-27T07:47:10.653Z,3189.38
2019-06-27T07:48:10.658Z,3307.50
2019-06-27T07:49:10.672Z,3487.50
2019-06-27T07:50:10.670Z,3594.38
2019-06-27T07:51:10.670Z,3560.63
2019-06-27T07:52:10.675Z,3566.25
2019-06-27T07:53:10.709Z,3543.75
2019-06-27T07:54:10.687Z,3549.38
2019-06-27T07:55:10.694Z,3538.13
2019-06-27T07:56:10.698Z,3549.38
2019-06-27T07:57:10.708Z,3611.25
2019-06-27T07:58:10.708Z,3695.63
2019-06-27T07:59:10.715Z,3729.38
2019-06-27T08:00:10.719Z,3735.00
2019-06-27T08:01:10.725Z,3723.75
2019-06-27T08:02:10.728Z,3706.88
2019-06-27T08:03:10.734Z,3673.13
2019-06-27T08:04:10.743Z,3695.63
2019-06-27T08:05:10.751Z,3684.38
2019-06-27T08:06:10.765Z,3706.88
2019-06-27T08:07:10.752Z,3757.50
2019-06-27T08:08:10.761Z,3791.25
2019-06-27T08:09:10.770Z,3808.13
2019-06-27T08:10:10.775Z,3853.13
2019-06-27T08:11:10.784Z,3870.00
2019-06-27T08:12:10.804Z,3875.63
2019-06-27T08:13:10.795Z,3881.25
2019-06-27T08:14:10.792Z,3892.50
2019-06-27T08:15:10.807Z,3898.13
2019-06-27T08:16:10.806Z,3937.50
2019-06-27T08:17:10.813Z,3965.63
2019-06-27T08:18:10.818Z,3931.88
2019-06-27T08:19:10.826Z,3746.25
2019-06-27T08:20:10.832Z,3560.63
2019-06-27T08:21:10.838Z,3493.13
2019-06-27T08:22:10.845Z,3510.00
2019-06-27T08:23:10.854Z,3661.88
2019-06-27T08:24:10.861Z,3864.38
2019-06-27T08:25:10.864Z,4021.88
2019-06-27T08:26:10.888Z,4089.38
2019-06-27T08:27:10.879Z,4117.50
2019-06-27T08:28:10.889Z,4044.38
2019-06-27T08:29:10.897Z,3937.50
2019-06-27T08:30:10.903Z,3870.00
2019-06-27T08:31:10.989Z,3791.25
2019-06-27T08:32:10.911Z,3751.88
2019-06-27T08:33:10.918Z,3763.13
2019-06-27T08:34:10.925Z,3808.13
2019-06-27T08:35:10.932Z,3954.38
2019-06-27T08:36:10.949Z,4134.38
2019-06-27T08:37:10.946Z,4218.75
2019-06-27T08:38:10.953Z,4280.63
2019-06-27T08:39:10.958Z,4303.13
2019-06-27T08:40:10.965Z,4314.38
2019-06-27T08:41:13.962Z,4353.75
2019-06-27T08:42:10.979Z,4336.88
2019-06-27T08:43:10.987Z,4291.88
2019-06-27T08:44:10.995Z,4252.50
2019-06-27T08:45:11.002Z,4179.38
2019-06-27T08:46:11.008Z,4117.50
2019-06-27T08:47:11.016Z,4185.00
2019-06-27T08:48:11.023Z,4275.00
2019-06-27T08:49:11.036Z,4308.75
2019-06-27T08:50:11.055Z,4325.63
2019-06-27T08:51:11.045Z,4291.88
2019-06-27T08:52:11.053Z,4252.50
2019-06-27T08:53:11.066Z,4213.13
2019-06-27T08:54:11.071Z,4218.75
2019-06-27T08:55:11.077Z,4241.25
2019-06-27T08:56:11.083Z,4252.50
2019-06-27T08:57:11.090Z,4230.00
2019-06-27T08:58:11.099Z,4235.63
2019-06-27T08:59:11.108Z,4207.50
2019-06-27T09:00:11.116Z,4179.38
2019-06-27T09:01:11.123Z,2508.75
2019-06-27T09:02:11.133Z,483.75
2019-06-27T09:03:11.145Z,292.50
2019-06-27T09:04:11.152Z,281.25
2019-06-27T09:05:11.152Z,264.38
2019-06-27T09:06:11.159Z,247.50
2019-06-27T09:07:11.171Z,236.25
2019-06-27T09:08:11.171Z,230.63
2019-06-27T09:09:11.180Z,225.00
2019-06-27T09:10:11.183Z,219.38
2019-06-27T09:11:11.192Z,219.38
2019-06-27T09:12:11.192Z,219.38
2019-06-27T09:13:11.203Z,219.38
2019-06-27T09:14:11.220Z,213.75
2019-06-27T09:15:11.215Z,213.75
2019-06-27T09:16:11.213Z,208.13
2019-06-27T09:17:11.215Z,208.13
2019-06-27T09:18:11.224Z,202.50
2019-06-27T09:19:11.225Z,202.50
2019-06-27T09:20:11.248Z,202.50
2019-06-27T09:21:11.235Z,202.50
2019-06-27T09:22:11.241Z,202.50
2019-06-27T09:23:11.239Z,196.88
2019-06-27T09:24:11.245Z,196.88
2019-06-27T09:25:11.248Z,196.88
2019-06-27T09:26:11.274Z,202.50
2019-06-27T09:27:11.257Z,196.88
2019-06-27T09:28:11.254Z,196.88
2019-06-27T09:29:11.272Z,191.25
2019-06-27T09:30:11.266Z,191.25
2019-06-27T09:31:11.364Z,191.25
2019-06-27T09:32:24.801Z,191.25
2019-06-27T09:33:11.270Z,191.25
2019-06-27T09:34:11.279Z,191.25
2019-06-27T09:35:11.274Z,191.25
2019-06-27T09:36:11.279Z,191.25
2019-06-27T09:37:11.288Z,185.63
2019-06-27T09:38:11.281Z,185.63
2019-06-27T09:39:11.288Z,185.63
2019-06-27T09:40:11.286Z,185.63
2019-06-27T09:41:11.310Z,185.63
2019-06-27T09:42:11.291Z,185.63
2019-06-27T09:43:11.294Z,185.63
2019-06-27T09:44:11.289Z,180.00
2019-06-27T09:45:11.295Z,180.00
2019-06-27T09:46:11.320Z,180.00
2019-06-27T09:47:11.308Z,180.00
2019-06-27T09:48:11.301Z,180.00
2019-06-27T09:49:11.309Z,180.00
2019-06-27T09:50:11.306Z,180.00
2019-06-27T09:51:11.306Z,180.00
2019-06-27T09:52:11.312Z,174.38
2019-06-27T09:53:11.318Z,174.38
2019-06-27T09:54:11.317Z,174.38
2019-06-27T09:55:11.348Z,174.38
2019-06-27T09:56:11.321Z,174.38
2019-06-27T09:57:11.322Z,174.38
2019-06-27T09:58:11.330Z,174.38
2019-06-27T09:59:11.327Z,174.38
2019-06-27T10:00:11.328Z,174.38
2019-06-27T10:01:11.331Z,174.38
2019-06-27T10:02:11.326Z,174.38
2019-06-27T10:03:11.332Z,174.38
2019-06-27T10:04:11.329Z,174.38
2019-06-27T10:05:11.337Z,174.38
2019-06-27T10:06:11.336Z,174.38
2019-06-27T10:07:11.339Z,174.38
2019-06-27T10:08:11.359Z,168.75
2019-06-27T10:09:11.381Z,168.75
2019-06-27T10:10:11.344Z,168.75
2019-06-27T10:11:11.357Z,174.38
2019-06-27T10:12:11.350Z,168.75
2019-06-27T10:13:11.345Z,174.38
2019-06-27T10:14:11.349Z,168.75
2019-06-27T10:15:11.351Z,168.75
2019-06-27T10:16:11.357Z,168.75
2019-06-27T10:17:11.358Z,168.75
2019-06-27T10:18:11.355Z,168.75
2019-06-27T10:19:11.360Z,174.38
2019-06-27T10:20:11.361Z,168.75
2019-06-27T10:21:11.362Z,174.38
2019-06-27T10:22:11.360Z,174.38
2019-06-27T10:23:11.366Z,174.38
2019-06-27T10:24:11.367Z,174.38
2019-06-27T10:25:11.363Z,168.75
2019-06-27T10:26:11.367Z,168.75
2019-06-27T10:27:11.583Z,168.75
2019-06-27T10:28:11.378Z,168.75
2019-06-27T10:29:11.381Z,168.75
2019-06-27T10:30:11.372Z,168.75
2019-06-27T10:31:11.376Z,168.75
2019-06-27T10:32:11.380Z,168.75
2019-06-27T10:33:11.378Z,168.75
2019-06-27T10:34:11.377Z,168.75
2019-06-27T10:35:11.381Z,168.75
2019-06-27T10:36:11.386Z,168.75
2019-06-27T10:37:11.384Z,168.75
2019-06-27T10:38:11.399Z,168.75
2019-06-27T10:39:11.388Z,168.75
2019-06-27T10:40:11.399Z,168.75
2019-06-27T10:41:11.392Z,168.75
2019-06-27T10:42:11.391Z,168.75
2019-06-27T10:43:11.395Z,168.75
2019-06-27T10:44:11.391Z,168.75
2019-06-27T10:45:11.398Z,168.75
2019-06-27T10:46:11.402Z,168.75
2019-06-27T10:47:11.405Z,168.75
2019-06-27T10:48:11.401Z,163.13
2019-06-27T10:49:11.403Z,163.13
2019-06-27T10:50:11.411Z,163.13
2019-06-27T10:51:11.410Z,163.13
2019-06-27T10:52:11.407Z,163.13
2019-06-27T10:53:11.407Z,163.13
2019-06-27T10:54:11.411Z,163.13
2019-06-27T10:55:11.413Z,163.13
2019-06-27T10:56:11.413Z,163.13
2019-06-27T10:57:11.410Z,163.13
2019-06-27T10:58:11.413Z,163.13
2019-06-27T10:59:11.416Z,163.13
2019-06-27T11:01:11.508Z,163.13
2019-06-27T11:04:12.374Z,163.13
2019-06-27T11:06:11.723Z,163.13
2019-06-27T11:07:11.851Z,163.13
2019-06-27T11:08:11.708Z,163.13
2019-06-27T11:10:12.627Z,163.13
2019-06-27T11:11:11.952Z,163.13
2019-06-27T11:12:12.480Z,163.13
2019-06-27T11:13:12.866Z,163.13
2019-06-27T11:15:12.733Z,163.13
2019-06-27T11:22:12.294Z,163.13
2019-06-27T11:23:13.010Z,163.13
2019-06-27T11:25:12.039Z,157.50
2019-06-27T11:27:14.374Z,157.50
2019-06-27T11:28:11.644Z,157.50
2019-06-27T11:34:05.835Z,157.50
2019-06-27T11:35:59.317Z,151.88
2019-06-27T11:40:37.434Z,151.88
2019-06-27T11:41:28.974Z,151.88
2019-06-27T11:44:53.029Z,151.88
2019-06-27T11:46:54.574Z,157.50
2019-06-27T11:47:52.748Z,157.50
2019-06-27T11:48:53.021Z,157.50
2019-06-27T11:51:53.330Z,151.88
2019-06-27T11:52:52.751Z,151.88
2019-06-27T11:54:53.204Z,157.50
2019-06-27T11:56:53.661Z,151.88
2019-06-27T12:00:32.937Z,151.88
2019-06-27T12:01:32.913Z,151.88
2019-06-27T12:02:32.908Z,151.88
2019-06-27T12:03:48.215Z,151.88
2019-06-27T12:04:32.914Z,151.88
2019-06-27T12:05:32.918Z,151.88
2019-06-27T12:06:32.917Z,151.88
2019-06-27T12:07:32.917Z,151.88
2019-06-27T12:08:32.924Z,151.88
2019-06-27T12:09:32.926Z,151.88
2019-06-27T12:10:32.922Z,151.88
2019-06-27T12:11:32.925Z,151.88
2019-06-27T12:12:32.927Z,151.88
2019-06-27T12:13:32.925Z,151.88
2019-06-27T12:14:32.933Z,151.88
2019-06-27T12:15:32.934Z,151.88
2019-06-27T12:16:32.936Z,151.88
2019-06-27T12:17:32.935Z,151.88
2019-06-27T12:18:32.940Z,151.88
2019-06-27T12:19:32.943Z,151.88
2019-06-27T12:20:32.941Z,151.88
2019-06-27T12:21:32.942Z,151.88
2019-06-27T12:22:32.945Z,151.88
2019-06-27T12:23:32.949Z,151.88
2019-06-27T12:24:32.951Z,151.88
2019-06-27T12:25:32.944Z,151.88
2019-06-27T12:26:32.950Z,151.88
2019-06-27T12:27:32.957Z,151.88
2019-06-27T12:28:32.969Z,151.88
2019-06-27T12:29:32.957Z,151.88
2019-06-27T12:30:32.964Z,151.88
2019-06-27T12:31:32.960Z,151.88
2019-06-27T12:32:47.169Z,151.88
2019-06-27T12:33:32.967Z,151.88
2019-06-27T12:34:32.975Z,151.88
2019-06-27T12:35:32.968Z,151.88
2019-06-27T12:36:32.967Z,151.88
2019-06-27T12:37:32.972Z,151.88
2019-06-27T12:38:32.975Z,151.88
2019-06-27T12:39:32.997Z,151.88
2019-06-27T12:40:32.983Z,151.88
2019-06-27T12:41:32.977Z,151.88
2019-06-27T12:42:33.115Z,151.88
2019-06-27T12:43:32.996Z,151.88
2019-06-27T12:44:32.992Z,151.88
2019-06-27T12:45:32.987Z,151.88
2019-06-27T12:46:32.989Z,151.88
2019-06-27T12:47:32.992Z,151.88
2019-06-27T12:48:32.997Z,151.88
2019-06-27T12:49:50.147Z,151.88
2019-06-27T12:50:32.995Z,151.88
2019-06-27T12:51:33.002Z,151.88
2019-06-27T12:52:33.011Z,151.88
2019-06-27T12:53:33.004Z,151.88
2019-06-27T12:54:33.010Z,151.88
2019-06-27T12:55:33.008Z,151.88
2019-06-27T12:56:33.011Z,157.50
2019-06-27T12:57:33.012Z,157.50
2019-06-27T12:58:33.013Z,151.88
2019-06-27T12:59:33.021Z,151.88
2019-06-27T13:00:33.018Z,151.88
2019-06-27T13:01:33.021Z,151.88
2019-06-27T13:02:33.023Z,151.88
2019-06-27T13:03:33.030Z,151.88
2019-06-27T13:04:33.028Z,151.88
2019-06-27T13:05:33.029Z,151.88
2019-06-27T13:06:33.051Z,151.88
2019-06-27T13:07:34.229Z,157.50
2019-06-27T13:08:33.068Z,157.50
2019-06-27T13:09:33.035Z,151.88